sensor_id;sensor_type;location;lat;lon;timestamp;temperature;humidity
18191;DHT22;47004;51.366;12.348;2024-01-30T00:00:16;4.60;99.90
18191;DHT22;47004;51.366;12.348;2024-01-30T00:02:18;4.60;99.90
18191;DHT22;47004;51.366;12.348;2024-01-30T00:04:19;4.60;99.90
18191;DHT22;47004;51.366;12.348;2024-01-30T00:06:21;4.60;99.90
18191;DHT22;47004;51.366;12.348;2024-01-30T00:08:23;4.50;99.90
18191;DHT22;47004;51.366;12.348;2024-01-30T00:10:25;4.50;99.90
18191;DHT22;47004;51.366;12.348;2024-01-30T00:12:28;4.50;99.90
18191;DHT22;47004;51.366;12.348;2024-01-30T00:14:32;4.50;99.90
18191;DHT22;47004;51.366;12.348;2024-01-30T00:16:34;4.50;99.90
18191;DHT22;47004;51.366;12.348;2024-01-30T00:18:36;4.50;99.90
18191;DHT22;47004;51.366;12.348;2024-01-30T00:20:40;4.50;99.90
18191;DHT22;47004;51.366;12.348;2024-01-30T00:22:43;4.50;99.90
18191;DHT22;47004;51.366;12.348;2024-01-30T00:24:45;4.50;99.90
18191;DHT22;47004;51.366;12.348;2024-01-30T00:26:46;4.50;99.90
18191;DHT22;47004;51.366;12.348;2024-01-30T00:28:49;4.50;99.90
18191;DHT22;47004;51.366;12.348;2024-01-30T00:30:51;4.50;99.90
18191;DHT22;47004;51.366;12.348;2024-01-30T00:32:53;4.50;99.90
18191;DHT22;47004;51.366;12.348;2024-01-30T00:34:55;4.50;99.90
18191;DHT22;47004;51.366;12.348;2024-01-30T00:36:57;4.50;99.90
18191;DHT22;47004;51.366;12.348;2024-01-30T00:38:58;4.50;99.90
18191;DHT22;47004;51.366;12.348;2024-01-30T00:41:00;4.50;99.90
18191;DHT22;47004;51.366;12.348;2024-01-30T00:43:02;4.50;99.90
18191;DHT22;47004;51.366;12.348;2024-01-30T00:45:06;4.50;99.90
18191;DHT22;47004;51.366;12.348;2024-01-30T00:47:11;4.50;99.90
18191;DHT22;47004;51.366;12.348;2024-01-30T00:49:13;4.40;99.90
18191;DHT22;47004;51.366;12.348;2024-01-30T00:51:15;4.50;99.90
18191;DHT22;47004;51.366;12.348;2024-01-30T00:53:19;4.50;99.90
18191;DHT22;47004;51.366;12.348;2024-01-30T00:55:21;4.60;99.90
18191;DHT22;47004;51.366;12.348;2024-01-30T00:57:23;4.50;99.90
18191;DHT22;47004;51.366;12.348;2024-01-30T00:59:27;4.50;99.90
18191;DHT22;47004;51.366;12.348;2024-01-30T01:01:31;4.50;99.90
18191;DHT22;47004;51.366;12.348;2024-01-30T01:03:32;4.50;99.90
18191;DHT22;47004;51.366;12.348;2024-01-30T01:05:34;4.50;99.90
18191;DHT22;47004;51.366;12.348;2024-01-30T01:07:36;4.50;99.90
18191;DHT22;47004;51.366;12.348;2024-01-30T01:09:38;4.50;99.90
18191;DHT22;47004;51.366;12.348;2024-01-30T01:11:39;4.50;99.90
18191;DHT22;47004;51.366;12.348;2024-01-30T01:13:41;4.60;99.90
18191;DHT22;47004;51.366;12.348;2024-01-30T01:15:43;4.60;99.90
18191;DHT22;47004;51.366;12.348;2024-01-30T01:17:46;4.60;99.90
18191;DHT22;47004;51.366;12.348;2024-01-30T01:19:47;4.50;99.90
18191;DHT22;47004;51.366;12.348;2024-01-30T01:21:48;4.60;99.90
18191;DHT22;47004;51.366;12.348;2024-01-30T01:23:50;4.60;99.90
18191;DHT22;47004;51.366;12.348;2024-01-30T01:25:52;4.60;99.90
18191;DHT22;47004;51.366;12.348;2024-01-30T01:27:54;4.50;99.90
18191;DHT22;47004;51.366;12.348;2024-01-30T01:29:57;4.50;99.90
18191;DHT22;47004;51.366;12.348;2024-01-30T01:31:57;4.60;99.90
18191;DHT22;47004;51.366;12.348;2024-01-30T01:34:01;4.50;99.90
18191;DHT22;47004;51.366;12.348;2024-01-30T01:36:02;4.60;99.90
18191;DHT22;47004;51.366;12.348;2024-01-30T01:38:04;4.50;99.90
18191;DHT22;47004;51.366;12.348;2024-01-30T01:40:07;4.60;99.90
18191;DHT22;47004;51.366;12.348;2024-01-30T01:42:08;4.60;99.90
18191;DHT22;47004;51.366;12.348;2024-01-30T01:44:10;4.60;99.90
18191;DHT22;47004;51.366;12.348;2024-01-30T01:46:12;4.60;99.90
18191;DHT22;47004;51.366;12.348;2024-01-30T01:48:14;4.50;99.90
18191;DHT22;47004;51.366;12.348;2024-01-30T01:50:18;4.50;99.90
18191;DHT22;47004;51.366;12.348;2024-01-30T01:52:20;4.50;99.90
18191;DHT22;47004;51.366;12.348;2024-01-30T01:54:22;4.60;99.90
18191;DHT22;47004;51.366;12.348;2024-01-30T01:56:28;4.50;99.90
18191;DHT22;47004;51.366;12.348;2024-01-30T01:58:30;4.50;99.90
18191;DHT22;47004;51.366;12.348;2024-01-30T02:00:32;4.50;99.90
18191;DHT22;47004;51.366;12.348;2024-01-30T02:02:35;4.50;99.90
18191;DHT22;47004;51.366;12.348;2024-01-30T02:04:37;4.50;99.90
18191;DHT22;47004;51.366;12.348;2024-01-30T02:06:40;4.50;99.90
18191;DHT22;47004;51.366;12.348;2024-01-30T02:08:42;4.50;99.90
18191;DHT22;47004;51.366;12.348;2024-01-30T02:10:44;4.50;99.90
18191;DHT22;47004;51.366;12.348;2024-01-30T02:12:46;4.50;99.90
18191;DHT22;47004;51.366;12.348;2024-01-30T02:14:48;4.50;99.90
18191;DHT22;47004;51.366;12.348;2024-01-30T02:16:50;4.50;99.90
18191;DHT22;47004;51.366;12.348;2024-01-30T02:18:52;4.50;99.90
18191;DHT22;47004;51.366;12.348;2024-01-30T02:20:56;4.50;99.90
18191;DHT22;47004;51.366;12.348;2024-01-30T02:23:04;4.50;99.90
18191;DHT22;47004;51.366;12.348;2024-01-30T02:25:07;4.50;99.90
18191;DHT22;47004;51.366;12.348;2024-01-30T02:27:09;4.50;99.90
18191;DHT22;47004;51.366;12.348;2024-01-30T02:29:11;4.50;99.90
18191;DHT22;47004;51.366;12.348;2024-01-30T02:31:13;4.50;99.90
18191;DHT22;47004;51.366;12.348;2024-01-30T02:33:15;4.50;99.90
18191;DHT22;47004;51.366;12.348;2024-01-30T02:35:17;4.40;99.90
18191;DHT22;47004;51.366;12.348;2024-01-30T02:37:20;4.50;99.90
18191;DHT22;47004;51.366;12.348;2024-01-30T02:39:24;4.40;99.90
18191;DHT22;47004;51.366;12.348;2024-01-30T02:41:26;4.40;99.90
18191;DHT22;47004;51.366;12.348;2024-01-30T02:43:28;4.40;99.90
18191;DHT22;47004;51.366;12.348;2024-01-30T02:45:29;4.40;99.90
18191;DHT22;47004;51.366;12.348;2024-01-30T02:47:32;4.40;99.90
18191;DHT22;47004;51.366;12.348;2024-01-30T02:49:34;4.40;99.90
18191;DHT22;47004;51.366;12.348;2024-01-30T02:51:36;4.40;99.90
18191;DHT22;47004;51.366;12.348;2024-01-30T02:53:37;4.40;99.90
18191;DHT22;47004;51.366;12.348;2024-01-30T02:55:41;4.40;99.90
18191;DHT22;47004;51.366;12.348;2024-01-30T02:57:42;4.40;99.90
18191;DHT22;47004;51.366;12.348;2024-01-30T02:59:43;4.40;99.90
18191;DHT22;47004;51.366;12.348;2024-01-30T03:01:45;4.40;99.90
18191;DHT22;47004;51.366;12.348;2024-01-30T03:03:47;4.40;99.90
18191;DHT22;47004;51.366;12.348;2024-01-30T03:05:48;4.40;99.90
18191;DHT22;47004;51.366;12.348;2024-01-30T03:07:50;4.40;99.90
18191;DHT22;47004;51.366;12.348;2024-01-30T03:09:51;4.40;99.90
18191;DHT22;47004;51.366;12.348;2024-01-30T03:11:57;4.40;99.90
18191;DHT22;47004;51.366;12.348;2024-01-30T03:13:59;4.40;99.90
18191;DHT22;47004;51.366;12.348;2024-01-30T03:16:01;4.30;99.90
18191;DHT22;47004;51.366;12.348;2024-01-30T03:18:03;4.30;99.90
18191;DHT22;47004;51.366;12.348;2024-01-30T03:20:06;4.30;99.90
18191;DHT22;47004;51.366;12.348;2024-01-30T03:22:09;4.30;99.90
18191;DHT22;47004;51.366;12.348;2024-01-30T03:24:11;4.30;99.90
18191;DHT22;47004;51.366;12.348;2024-01-30T03:26:16;4.30;99.90
18191;DHT22;47004;51.366;12.348;2024-01-30T03:28:19;4.30;99.90
18191;DHT22;47004;51.366;12.348;2024-01-30T03:30:21;4.30;99.90
18191;DHT22;47004;51.366;12.348;2024-01-30T03:32:23;4.30;99.90
18191;DHT22;47004;51.366;12.348;2024-01-30T03:34:23;4.30;99.90
18191;DHT22;47004;51.366;12.348;2024-01-30T03:36:25;4.20;99.90
18191;DHT22;47004;51.366;12.348;2024-01-30T03:38:27;4.20;99.90
18191;DHT22;47004;51.366;12.348;2024-01-30T03:40:29;4.20;99.90
18191;DHT22;47004;51.366;12.348;2024-01-30T03:42:31;4.20;99.90
18191;DHT22;47004;51.366;12.348;2024-01-30T03:44:34;4.20;99.90
18191;DHT22;47004;51.366;12.348;2024-01-30T03:46:35;4.20;99.90
18191;DHT22;47004;51.366;12.348;2024-01-30T03:48:37;4.10;99.90
18191;DHT22;47004;51.366;12.348;2024-01-30T03:50:39;4.20;99.90
18191;DHT22;47004;51.366;12.348;2024-01-30T03:52:41;4.20;99.90
18191;DHT22;47004;51.366;12.348;2024-01-30T03:54:43;4.20;99.90
18191;DHT22;47004;51.366;12.348;2024-01-30T03:56:45;4.20;99.90
18191;DHT22;47004;51.366;12.348;2024-01-30T03:58:47;4.10;99.90
18191;DHT22;47004;51.366;12.348;2024-01-30T04:00:50;4.10;99.90
18191;DHT22;47004;51.366;12.348;2024-01-30T04:02:53;4.10;99.90
18191;DHT22;47004;51.366;12.348;2024-01-30T04:04:54;4.10;99.90
18191;DHT22;47004;51.366;12.348;2024-01-30T04:06:56;4.00;99.90
18191;DHT22;47004;51.366;12.348;2024-01-30T04:08:58;4.00;99.90
18191;DHT22;47004;51.366;12.348;2024-01-30T04:11:03;4.00;99.90
18191;DHT22;47004;51.366;12.348;2024-01-30T04:13:04;4.00;99.90
18191;DHT22;47004;51.366;12.348;2024-01-30T04:15:06;4.00;99.90
18191;DHT22;47004;51.366;12.348;2024-01-30T04:17:09;4.00;99.90
18191;DHT22;47004;51.366;12.348;2024-01-30T04:19:11;4.00;99.90
18191;DHT22;47004;51.366;12.348;2024-01-30T04:21:12;4.00;99.90
18191;DHT22;47004;51.366;12.348;2024-01-30T04:23:14;4.00;99.90
18191;DHT22;47004;51.366;12.348;2024-01-30T04:25:16;4.00;99.90
18191;DHT22;47004;51.366;12.348;2024-01-30T04:27:18;4.00;99.90
18191;DHT22;47004;51.366;12.348;2024-01-30T04:29:19;4.20;99.90
18191;DHT22;47004;51.366;12.348;2024-01-30T04:31:23;3.90;99.90
18191;DHT22;47004;51.366;12.348;2024-01-30T04:33:26;3.90;99.90
18191;DHT22;47004;51.366;12.348;2024-01-30T04:35:28;3.90;99.90
18191;DHT22;47004;51.366;12.348;2024-01-30T04:37:29;3.90;99.90
18191;DHT22;47004;51.366;12.348;2024-01-30T04:39:33;3.90;99.90
18191;DHT22;47004;51.366;12.348;2024-01-30T04:41:35;4.00;99.90
18191;DHT22;47004;51.366;12.348;2024-01-30T04:43:36;4.00;99.90
18191;DHT22;47004;51.366;12.348;2024-01-30T04:45:37;4.00;99.90
18191;DHT22;47004;51.366;12.348;2024-01-30T04:47:39;4.00;99.90
18191;DHT22;47004;51.366;12.348;2024-01-30T04:49:43;4.00;99.90
18191;DHT22;47004;51.366;12.348;2024-01-30T04:51:45;4.00;99.90
18191;DHT22;47004;51.366;12.348;2024-01-30T04:53:47;3.90;99.90
18191;DHT22;47004;51.366;12.348;2024-01-30T04:55:49;3.90;99.90
18191;DHT22;47004;51.366;12.348;2024-01-30T04:57:50;3.90;99.90
18191;DHT22;47004;51.366;12.348;2024-01-30T04:59:52;3.90;99.90
18191;DHT22;47004;51.366;12.348;2024-01-30T05:01:54;3.90;99.90
18191;DHT22;47004;51.366;12.348;2024-01-30T05:03:56;3.90;99.90
18191;DHT22;47004;51.366;12.348;2024-01-30T05:05:59;3.90;99.90
18191;DHT22;47004;51.366;12.348;2024-01-30T05:08:01;3.90;99.90
18191;DHT22;47004;51.366;12.348;2024-01-30T05:10:04;3.90;99.90
18191;DHT22;47004;51.366;12.348;2024-01-30T05:12:07;3.90;99.90
18191;DHT22;47004;51.366;12.348;2024-01-30T05:14:09;3.90;99.90
18191;DHT22;47004;51.366;12.348;2024-01-30T05:16:11;3.80;99.90
18191;DHT22;47004;51.366;12.348;2024-01-30T05:18:13;3.80;99.90
18191;DHT22;47004;51.366;12.348;2024-01-30T05:20:16;3.80;99.90
18191;DHT22;47004;51.366;12.348;2024-01-30T05:22:19;3.90;99.90
18191;DHT22;47004;51.366;12.348;2024-01-30T05:24:22;3.90;99.90
18191;DHT22;47004;51.366;12.348;2024-01-30T05:26:23;3.90;99.90
18191;DHT22;47004;51.366;12.348;2024-01-30T05:28:25;3.90;99.90
18191;DHT22;47004;51.366;12.348;2024-01-30T05:30:27;3.90;99.90
18191;DHT22;47004;51.366;12.348;2024-01-30T05:32:29;3.90;99.90
18191;DHT22;47004;51.366;12.348;2024-01-30T05:34:31;3.90;99.90
18191;DHT22;47004;51.366;12.348;2024-01-30T05:36:33;3.90;99.90
18191;DHT22;47004;51.366;12.348;2024-01-30T05:38:37;3.90;99.90
18191;DHT22;47004;51.366;12.348;2024-01-30T05:40:39;3.90;99.90
18191;DHT22;47004;51.366;12.348;2024-01-30T05:42:41;3.90;99.90
18191;DHT22;47004;51.366;12.348;2024-01-30T05:44:42;3.90;99.90
18191;DHT22;47004;51.366;12.348;2024-01-30T05:46:47;3.90;99.90
18191;DHT22;47004;51.366;12.348;2024-01-30T05:48:49;3.90;99.90
18191;DHT22;47004;51.366;12.348;2024-01-30T05:50:51;3.90;99.90
18191;DHT22;47004;51.366;12.348;2024-01-30T05:52:53;3.90;99.90
18191;DHT22;47004;51.366;12.348;2024-01-30T05:54:56;3.90;99.90
18191;DHT22;47004;51.366;12.348;2024-01-30T05:56:58;3.90;99.90
18191;DHT22;47004;51.366;12.348;2024-01-30T05:59:00;3.90;99.90
18191;DHT22;47004;51.366;12.348;2024-01-30T06:01:01;3.60;99.90
18191;DHT22;47004;51.366;12.348;2024-01-30T06:03:03;3.90;99.90
18191;DHT22;47004;51.366;12.348;2024-01-30T06:05:05;3.80;99.90
18191;DHT22;47004;51.366;12.348;2024-01-30T06:07:10;3.80;99.90
18191;DHT22;47004;51.366;12.348;2024-01-30T06:09:12;3.90;99.90
18191;DHT22;47004;51.366;12.348;2024-01-30T06:11:16;3.90;99.90
18191;DHT22;47004;51.366;12.348;2024-01-30T06:13:18;3.90;99.90
18191;DHT22;47004;51.366;12.348;2024-01-30T06:15:19;3.90;99.90
18191;DHT22;47004;51.366;12.348;2024-01-30T06:17:21;3.80;99.90
18191;DHT22;47004;51.366;12.348;2024-01-30T06:19:23;3.80;99.90
18191;DHT22;47004;51.366;12.348;2024-01-30T06:21:25;3.90;99.90
18191;DHT22;47004;51.366;12.348;2024-01-30T06:23:27;3.90;99.90
18191;DHT22;47004;51.366;12.348;2024-01-30T06:25:29;4.00;99.90
18191;DHT22;47004;51.366;12.348;2024-01-30T06:27:32;3.80;99.90
18191;DHT22;47004;51.366;12.348;2024-01-30T06:29:34;3.90;99.90
18191;DHT22;47004;51.366;12.348;2024-01-30T06:31:40;3.80;99.90
18191;DHT22;47004;51.366;12.348;2024-01-30T06:33:42;3.90;99.90
18191;DHT22;47004;51.366;12.348;2024-01-30T06:35:46;3.80;99.90
18191;DHT22;47004;51.366;12.348;2024-01-30T06:37:48;3.80;99.90
18191;DHT22;47004;51.366;12.348;2024-01-30T06:39:50;3.80;99.90
18191;DHT22;47004;51.366;12.348;2024-01-30T06:41:53;3.80;99.90
18191;DHT22;47004;51.366;12.348;2024-01-30T06:43:56;3.80;99.90
18191;DHT22;47004;51.366;12.348;2024-01-30T06:46:00;3.80;99.90
18191;DHT22;47004;51.366;12.348;2024-01-30T06:48:02;3.80;99.90
18191;DHT22;47004;51.366;12.348;2024-01-30T06:50:04;3.80;99.90
18191;DHT22;47004;51.366;12.348;2024-01-30T06:52:06;3.80;99.90
18191;DHT22;47004;51.366;12.348;2024-01-30T06:54:08;3.80;99.90
18191;DHT22;47004;51.366;12.348;2024-01-30T06:56:10;3.80;99.90
18191;DHT22;47004;51.366;12.348;2024-01-30T06:58:12;3.80;99.90
18191;DHT22;47004;51.366;12.348;2024-01-30T07:00:16;3.80;99.90
18191;DHT22;47004;51.366;12.348;2024-01-30T07:02:19;3.80;99.90
18191;DHT22;47004;51.366;12.348;2024-01-30T07:04:21;3.80;99.90
18191;DHT22;47004;51.366;12.348;2024-01-30T07:06:23;3.80;99.90
18191;DHT22;47004;51.366;12.348;2024-01-30T07:08:25;3.70;99.90
18191;DHT22;47004;51.366;12.348;2024-01-30T07:10:27;3.80;99.90
18191;DHT22;47004;51.366;12.348;2024-01-30T07:12:28;3.80;99.90
18191;DHT22;47004;51.366;12.348;2024-01-30T07:14:30;3.90;99.90
18191;DHT22;47004;51.366;12.348;2024-01-30T07:16:33;3.80;99.90
18191;DHT22;47004;51.366;12.348;2024-01-30T07:18:35;3.80;99.90
18191;DHT22;47004;51.366;12.348;2024-01-30T07:20:37;3.80;99.90
18191;DHT22;47004;51.366;12.348;2024-01-30T07:22:43;3.80;99.90
18191;DHT22;47004;51.366;12.348;2024-01-30T07:24:45;3.80;99.90
18191;DHT22;47004;51.366;12.348;2024-01-30T07:26:48;3.80;99.90
18191;DHT22;47004;51.366;12.348;2024-01-30T07:28:50;3.90;99.90
18191;DHT22;47004;51.366;12.348;2024-01-30T07:30:52;3.90;99.90
18191;DHT22;47004;51.366;12.348;2024-01-30T07:32:55;3.90;99.90
18191;DHT22;47004;51.366;12.348;2024-01-30T07:34:57;3.90;99.90
18191;DHT22;47004;51.366;12.348;2024-01-30T07:36:59;3.90;99.90
18191;DHT22;47004;51.366;12.348;2024-01-30T07:39:01;3.90;99.90
18191;DHT22;47004;51.366;12.348;2024-01-30T07:41:04;3.90;99.90
18191;DHT22;47004;51.366;12.348;2024-01-30T07:43:05;4.00;99.90
18191;DHT22;47004;51.366;12.348;2024-01-30T07:45:08;4.00;99.90
18191;DHT22;47004;51.366;12.348;2024-01-30T07:47:10;4.00;99.90
18191;DHT22;47004;51.366;12.348;2024-01-30T07:49:13;4.10;99.90
18191;DHT22;47004;51.366;12.348;2024-01-30T07:51:15;4.10;99.90
18191;DHT22;47004;51.366;12.348;2024-01-30T07:53:17;4.10;99.90
18191;DHT22;47004;51.366;12.348;2024-01-30T07:55:19;4.20;99.90
18191;DHT22;47004;51.366;12.348;2024-01-30T07:57:27;4.20;99.90
18191;DHT22;47004;51.366;12.348;2024-01-30T07:59:28;4.20;99.90
18191;DHT22;47004;51.366;12.348;2024-01-30T08:01:30;4.30;99.90
18191;DHT22;47004;51.366;12.348;2024-01-30T08:03:35;4.30;99.90
18191;DHT22;47004;51.366;12.348;2024-01-30T08:05:38;4.30;99.90
18191;DHT22;47004;51.366;12.348;2024-01-30T08:07:41;4.50;99.90
18191;DHT22;47004;51.366;12.348;2024-01-30T08:09:43;4.40;99.90
18191;DHT22;47004;51.366;12.348;2024-01-30T08:11:44;4.40;99.90
18191;DHT22;47004;51.366;12.348;2024-01-30T08:13:46;4.40;99.90
18191;DHT22;47004;51.366;12.348;2024-01-30T08:15:47;4.50;99.90
18191;DHT22;47004;51.366;12.348;2024-01-30T08:17:49;4.50;99.90
18191;DHT22;47004;51.366;12.348;2024-01-30T08:19:56;4.50;99.90
18191;DHT22;47004;51.366;12.348;2024-01-30T08:21:59;4.60;99.90
18191;DHT22;47004;51.366;12.348;2024-01-30T08:24:02;4.60;99.90
18191;DHT22;47004;51.366;12.348;2024-01-30T08:26:04;4.60;99.90
18191;DHT22;47004;51.366;12.348;2024-01-30T08:28:07;4.70;99.90
18191;DHT22;47004;51.366;12.348;2024-01-30T08:30:10;4.80;99.90
18191;DHT22;47004;51.366;12.348;2024-01-30T08:32:12;4.80;99.90
18191;DHT22;47004;51.366;12.348;2024-01-30T08:34:14;4.80;99.90
18191;DHT22;47004;51.366;12.348;2024-01-30T08:36:17;4.90;99.90
18191;DHT22;47004;51.366;12.348;2024-01-30T08:38:19;4.90;99.90
18191;DHT22;47004;51.366;12.348;2024-01-30T08:40:21;5.00;99.90
18191;DHT22;47004;51.366;12.348;2024-01-30T08:42:23;5.00;99.90
18191;DHT22;47004;51.366;12.348;2024-01-30T08:44:25;5.00;99.90
18191;DHT22;47004;51.366;12.348;2024-01-30T08:46:28;5.00;99.90
18191;DHT22;47004;51.366;12.348;2024-01-30T08:48:31;5.10;99.90
18191;DHT22;47004;51.366;12.348;2024-01-30T08:50:33;5.10;99.90
18191;DHT22;47004;51.366;12.348;2024-01-30T08:52:35;5.20;99.90
18191;DHT22;47004;51.366;12.348;2024-01-30T08:54:41;5.30;99.90
18191;DHT22;47004;51.366;12.348;2024-01-30T08:56:43;5.20;99.90
18191;DHT22;47004;51.366;12.348;2024-01-30T08:58:45;5.30;99.90
18191;DHT22;47004;51.366;12.348;2024-01-30T09:00:47;5.40;99.90
18191;DHT22;47004;51.366;12.348;2024-01-30T09:02:48;5.40;99.90
18191;DHT22;47004;51.366;12.348;2024-01-30T09:04:50;5.40;99.90
18191;DHT22;47004;51.366;12.348;2024-01-30T09:06:52;5.40;99.90
18191;DHT22;47004;51.366;12.348;2024-01-30T09:08:54;5.50;99.90
18191;DHT22;47004;51.366;12.348;2024-01-30T09:10:59;5.60;99.90
18191;DHT22;47004;51.366;12.348;2024-01-30T09:13:01;5.60;99.90
18191;DHT22;47004;51.366;12.348;2024-01-30T09:15:04;5.70;99.90
18191;DHT22;47004;51.366;12.348;2024-01-30T09:17:06;5.70;99.90
18191;DHT22;47004;51.366;12.348;2024-01-30T09:19:07;5.80;99.90
18191;DHT22;47004;51.366;12.348;2024-01-30T09:21:10;5.90;99.90
18191;DHT22;47004;51.366;12.348;2024-01-30T09:23:12;6.00;99.90
18191;DHT22;47004;51.366;12.348;2024-01-30T09:25:15;6.00;99.90
18191;DHT22;47004;51.366;12.348;2024-01-30T09:27:18;6.10;99.90
18191;DHT22;47004;51.366;12.348;2024-01-30T09:29:20;6.10;99.90
18191;DHT22;47004;51.366;12.348;2024-01-30T09:31:22;6.20;99.90
18191;DHT22;47004;51.366;12.348;2024-01-30T09:33:25;6.30;99.90
18191;DHT22;47004;51.366;12.348;2024-01-30T09:35:27;6.30;99.90
18191;DHT22;47004;51.366;12.348;2024-01-30T09:37:29;6.40;99.90
18191;DHT22;47004;51.366;12.348;2024-01-30T09:39:31;6.40;99.90
18191;DHT22;47004;51.366;12.348;2024-01-30T09:41:40;6.50;99.90
18191;DHT22;47004;51.366;12.348;2024-01-30T09:43:47;6.50;99.90
18191;DHT22;47004;51.366;12.348;2024-01-30T09:45:50;6.60;99.90
18191;DHT22;47004;51.366;12.348;2024-01-30T09:47:53;6.70;99.90
18191;DHT22;47004;51.366;12.348;2024-01-30T09:49:55;6.80;99.90
18191;DHT22;47004;51.366;12.348;2024-01-30T09:51:58;6.80;99.90
18191;DHT22;47004;51.366;12.348;2024-01-30T09:54:01;6.90;99.90
18191;DHT22;47004;51.366;12.348;2024-01-30T09:56:04;7.00;99.90
18191;DHT22;47004;51.366;12.348;2024-01-30T09:58:07;7.00;99.90
18191;DHT22;47004;51.366;12.348;2024-01-30T10:00:12;7.10;99.90
18191;DHT22;47004;51.366;12.348;2024-01-30T10:02:14;7.20;99.90
18191;DHT22;47004;51.366;12.348;2024-01-30T10:04:19;7.30;99.90
18191;DHT22;47004;51.366;12.348;2024-01-30T10:06:21;7.40;99.90
18191;DHT22;47004;51.366;12.348;2024-01-30T10:08:26;7.40;99.90
18191;DHT22;47004;51.366;12.348;2024-01-30T10:10:30;7.40;99.90
18191;DHT22;47004;51.366;12.348;2024-01-30T10:12:32;7.50;99.90
18191;DHT22;47004;51.366;12.348;2024-01-30T10:14:37;7.60;99.90
18191;DHT22;47004;51.366;12.348;2024-01-30T10:16:40;7.60;99.90
18191;DHT22;47004;51.366;12.348;2024-01-30T10:18:42;7.70;99.90
18191;DHT22;47004;51.366;12.348;2024-01-30T10:20:44;7.80;99.90
18191;DHT22;47004;51.366;12.348;2024-01-30T10:22:46;7.80;99.90
18191;DHT22;47004;51.366;12.348;2024-01-30T10:24:51;7.90;99.90
18191;DHT22;47004;51.366;12.348;2024-01-30T10:26:53;8.00;99.90
18191;DHT22;47004;51.366;12.348;2024-01-30T10:28:56;8.00;99.90
18191;DHT22;47004;51.366;12.348;2024-01-30T10:30:59;8.10;99.90
18191;DHT22;47004;51.366;12.348;2024-01-30T10:33:02;8.10;99.90
18191;DHT22;47004;51.366;12.348;2024-01-30T10:35:04;8.20;99.90
18191;DHT22;47004;51.366;12.348;2024-01-30T10:37:08;8.30;99.90
18191;DHT22;47004;51.366;12.348;2024-01-30T10:39:17;8.30;99.90
18191;DHT22;47004;51.366;12.348;2024-01-30T10:41:26;8.40;99.90
18191;DHT22;47004;51.366;12.348;2024-01-30T10:43:32;8.40;99.90
18191;DHT22;47004;51.366;12.348;2024-01-30T10:45:35;8.50;99.90
18191;DHT22;47004;51.366;12.348;2024-01-30T10:47:42;8.60;99.90
18191;DHT22;47004;51.366;12.348;2024-01-30T10:49:46;8.60;99.90
18191;DHT22;47004;51.366;12.348;2024-01-30T10:51:49;8.70;99.90
18191;DHT22;47004;51.366;12.348;2024-01-30T10:53:50;8.80;99.90
18191;DHT22;47004;51.366;12.348;2024-01-30T10:55:54;8.80;99.90
18191;DHT22;47004;51.366;12.348;2024-01-30T10:57:57;8.90;99.90
18191;DHT22;47004;51.366;12.348;2024-01-30T11:00:05;8.90;99.90
18191;DHT22;47004;51.366;12.348;2024-01-30T11:02:11;9.00;99.90
18191;DHT22;47004;51.366;12.348;2024-01-30T11:04:13;9.20;99.90
18191;DHT22;47004;51.366;12.348;2024-01-30T11:06:17;9.10;99.90
18191;DHT22;47004;51.366;12.348;2024-01-30T11:08:24;9.10;99.90
18191;DHT22;47004;51.366;12.348;2024-01-30T11:10:29;9.20;99.90
18191;DHT22;47004;51.366;12.348;2024-01-30T11:12:32;9.20;99.90
18191;DHT22;47004;51.366;12.348;2024-01-30T11:14:33;9.30;99.90
18191;DHT22;47004;51.366;12.348;2024-01-30T11:16:35;9.30;99.90
18191;DHT22;47004;51.366;12.348;2024-01-30T11:18:37;9.30;99.90
18191;DHT22;47004;51.366;12.348;2024-01-30T11:20:46;9.50;99.90
18191;DHT22;47004;51.366;12.348;2024-01-30T11:22:52;9.50;99.90
18191;DHT22;47004;51.366;12.348;2024-01-30T11:24:53;9.50;99.90
18191;DHT22;47004;51.366;12.348;2024-01-30T11:26:56;9.60;99.90
18191;DHT22;47004;51.366;12.348;2024-01-30T11:28:58;9.60;99.90
18191;DHT22;47004;51.366;12.348;2024-01-30T11:31:05;9.70;99.90
18191;DHT22;47004;51.366;12.348;2024-01-30T11:33:08;9.70;99.90
18191;DHT22;47004;51.366;12.348;2024-01-30T11:35:17;9.80;99.90
18191;DHT22;47004;51.366;12.348;2024-01-30T11:37:21;9.80;99.90
18191;DHT22;47004;51.366;12.348;2024-01-30T11:39:29;9.90;99.90
18191;DHT22;47004;51.366;12.348;2024-01-30T11:41:32;9.90;99.90
18191;DHT22;47004;51.366;12.348;2024-01-30T11:43:34;9.90;99.90
18191;DHT22;47004;51.366;12.348;2024-01-30T11:45:36;9.90;99.90
18191;DHT22;47004;51.366;12.348;2024-01-30T11:47:39;10.00;99.90
18191;DHT22;47004;51.366;12.348;2024-01-30T11:49:40;10.00;99.90
18191;DHT22;47004;51.366;12.348;2024-01-30T11:51:43;10.10;99.90
18191;DHT22;47004;51.366;12.348;2024-01-30T11:53:49;10.10;99.90
18191;DHT22;47004;51.366;12.348;2024-01-30T11:55:53;10.20;99.90
18191;DHT22;47004;51.366;12.348;2024-01-30T11:57:56;10.30;99.90
18191;DHT22;47004;51.366;12.348;2024-01-30T11:59:58;10.40;99.90
18191;DHT22;47004;51.366;12.348;2024-01-30T12:02:00;10.60;99.90
18191;DHT22;47004;51.366;12.348;2024-01-30T12:04:02;10.70;99.90
18191;DHT22;47004;51.366;12.348;2024-01-30T12:06:09;10.90;99.90
18191;DHT22;47004;51.366;12.348;2024-01-30T12:08:15;11.00;99.90
18191;DHT22;47004;51.366;12.348;2024-01-30T12:10:17;11.20;99.90
18191;DHT22;47004;51.366;12.348;2024-01-30T12:12:21;11.30;99.90
18191;DHT22;47004;51.366;12.348;2024-01-30T12:14:27;11.40;99.90
18191;DHT22;47004;51.366;12.348;2024-01-30T12:16:31;11.60;99.90
18191;DHT22;47004;51.366;12.348;2024-01-30T12:18:32;11.80;99.90
18191;DHT22;47004;51.366;12.348;2024-01-30T12:20:34;11.80;99.90
18191;DHT22;47004;51.366;12.348;2024-01-30T12:22:37;12.00;99.90
18191;DHT22;47004;51.366;12.348;2024-01-30T12:24:40;12.10;99.90
18191;DHT22;47004;51.366;12.348;2024-01-30T12:26:45;12.10;99.90
18191;DHT22;47004;51.366;12.348;2024-01-30T12:28:53;12.20;99.90
18191;DHT22;47004;51.366;12.348;2024-01-30T12:30:56;12.30;99.90
18191;DHT22;47004;51.366;12.348;2024-01-30T12:32:58;12.40;99.90
18191;DHT22;47004;51.366;12.348;2024-01-30T12:35:00;12.50;99.90
18191;DHT22;47004;51.366;12.348;2024-01-30T12:37:02;12.50;99.90
18191;DHT22;47004;51.366;12.348;2024-01-30T12:39:04;12.60;99.90
18191;DHT22;47004;51.366;12.348;2024-01-30T12:41:07;12.70;99.90
18191;DHT22;47004;51.366;12.348;2024-01-30T12:43:10;12.70;99.90
18191;DHT22;47004;51.366;12.348;2024-01-30T12:45:14;12.80;99.90
18191;DHT22;47004;51.366;12.348;2024-01-30T12:47:16;12.90;99.90
18191;DHT22;47004;51.366;12.348;2024-01-30T12:49:18;13.00;99.90
18191;DHT22;47004;51.366;12.348;2024-01-30T12:51:20;13.10;99.90
18191;DHT22;47004;51.366;12.348;2024-01-30T12:53:22;13.10;99.90